»·PEaware :: SKY74 KHLN-KLVM

SKY74 :: KHLN-KLVM

FLIGHT INFORMATION

Flight Status: Arrived
Operator:
Sky High Charters
More flights by this operator :: More flights under this callsign
Pilot: Charles C. (26995)
Aircraft: MCDONNELL-DOUGLAS SKYTRAIN C-47
(DC3)
More flights by this aircraft type
Origin: KHLN Helena Regl
United States
Destination: KLVM Mission
United States
More flights between these airports :: More routes between these airports
Route: HLN4 HLN V2 LVM
File this flight plan on PilotEdge
Remarks:
Altitude:
(Current/Filed)
11,000ft
Speed:
(Current/Filed)
150kts
Departed: 29-Aug-20 09:03 AM
Arrived: 29-Aug-20 09:59 AM
Distance/Time
Traveled:
84nm/0:56
Distance/Time
To Go:
Arrived

Flight Plot

Page will automatically refresh every two minutes.

Flight plan parsing failed; only flown route is shown


Map Options




Map Legend


Flown Route
Filed Route
Departure Airport
Arrival Airport
Navaid (VOR, NDB)
Fix

Horizontal Profiles

Position Reports

Time Latitude Longitude Heading Altitude Ground
Speed
29-Aug-20 08:46 46.602705 -111.981979 356 3865ft 0kts
29-Aug-20 08:47 46.602705 -111.981979 356 3865ft 0kts
29-Aug-20 08:48 46.602705 -111.981979 356 3865ft 0kts
29-Aug-20 08:49 46.602705 -111.981979 356 3865ft 0kts
29-Aug-20 08:50 46.602705 -111.981979 356 3865ft 0kts
29-Aug-20 08:51 46.602705 -111.981979 356 3865ft 0kts
29-Aug-20 08:52 46.602705 -111.981979 356 3865ft 0kts
29-Aug-20 08:53 46.602705 -111.981979 356 3865ft 0kts
29-Aug-20 08:54 46.603145 -111.982001 1 3863ft 13kts
29-Aug-20 08:55 46.603233 -111.981993 12 3863ft 0kts
29-Aug-20 08:56 46.603233 -111.981994 12 3863ft 0kts
29-Aug-20 08:57 46.603233 -111.981994 12 3863ft 0kts
29-Aug-20 08:58 46.603637 -111.979710 87 3862ft 16kts
29-Aug-20 08:59 46.602786 -111.969878 100 3855ft 24kts
29-Aug-20 09:00 46.601949 -111.964102 97 3850ft 8kts
29-Aug-20 09:01 46.603471 -111.965848 281 3847ft 34kts
29-Aug-20 09:02 46.610584 -112.003583 312 4391ft 108kts
29-Aug-20 09:03 46.639867 -112.001100 15 5079ft 110kts
29-Aug-20 09:04 46.669298 -111.986861 15 5734ft 112kts
29-Aug-20 09:05 46.699023 -111.972916 14 6438ft 117kts
29-Aug-20 09:06 46.730486 -111.980476 349 7196ft 116kts
29-Aug-20 09:07 46.761912 -111.984334 2 8103ft 117kts
29-Aug-20 09:08 46.756088 -112.000740 137 8960ft 129kts
29-Aug-20 09:09 46.730727 -111.969980 166 9849ft 119kts
29-Aug-20 09:10 46.698044 -111.958558 182 10583ft 120kts
29-Aug-20 09:11 46.662890 -111.956427 185 11031ft 141kts
29-Aug-20 09:12 46.619801 -111.956480 176 11004ft 163kts
29-Aug-20 09:13 46.590792 -111.905207 123 10983ft 174kts
29-Aug-20 09:14 46.567417 -111.843775 124 10983ft 173kts
29-Aug-20 09:15 46.544012 -111.782609 124 10984ft 173kts
29-Aug-20 09:16 46.519502 -111.722672 125 10983ft 172kts
29-Aug-20 09:17 46.495740 -111.662239 124 10983ft 172kts
29-Aug-20 09:18 46.472246 -111.601477 124 10983ft 172kts
29-Aug-20 09:19 46.448761 -111.540695 124 10991ft 172kts
29-Aug-20 09:20 46.424977 -111.479363 122 11006ft 177kts
29-Aug-20 09:21 46.400703 -111.416725 122 11024ft 179kts
29-Aug-20 09:22 46.376187 -111.353693 122 11039ft 180kts
29-Aug-20 09:23 46.351609 -111.290671 123 11037ft 180kts
29-Aug-20 09:24 46.326957 -111.227593 123 11037ft 180kts
29-Aug-20 09:25 46.301872 -111.163578 123 11010ft 184kts
29-Aug-20 09:26 46.276652 -111.099343 123 11010ft 184kts
29-Aug-20 09:27 46.241191 -111.048877 146 11010ft 179kts
29-Aug-20 09:28 46.202086 -111.003920 146 11010ft 179kts
29-Aug-20 09:29 46.162863 -110.959059 146 11010ft 180kts
29-Aug-20 09:30 46.123596 -110.914244 146 11010ft 180kts
29-Aug-20 09:31 46.084312 -110.869755 147 11009ft 180kts
29-Aug-20 09:32 46.044785 -110.825022 145 11003ft 180kts
29-Aug-20 09:33 46.005535 -110.780204 146 10996ft 180kts
29-Aug-20 09:34 45.966310 -110.735975 147 10989ft 178kts
29-Aug-20 09:35 45.927434 -110.692229 147 10982ft 177kts
29-Aug-20 09:36 45.888803 -110.648837 147 10977ft 176kts
29-Aug-20 09:37 45.850280 -110.605645 147 10974ft 173kts
29-Aug-20 09:38 45.813844 -110.564843 148 10973ft 160kts
29-Aug-20 09:39 45.779449 -110.526411 148 10974ft 154kts
29-Aug-20 09:40 45.746034 -110.489130 148 10975ft 151kts
29-Aug-20 09:41 45.713943 -110.453337 149 10970ft 137kts
29-Aug-20 09:42 45.719350 -110.396633 59 10113ft 185kts
29-Aug-20 09:43 45.743632 -110.328453 62 9243ft 192kts
29-Aug-20 09:44 45.766345 -110.260799 62 8734ft 179kts
29-Aug-20 09:45 45.787723 -110.199068 61 8622ft 165kts
29-Aug-20 09:46 45.800622 -110.140597 105 8627ft 153kts
29-Aug-20 09:47 45.792593 -110.081945 77 8620ft 149kts
29-Aug-20 09:48 45.816941 -110.081753 262 8476ft 118kts
29-Aug-20 09:49 45.806233 -110.128609 254 8001ft 130kts
29-Aug-20 09:50 45.795941 -110.172981 244 7536ft 140kts
29-Aug-20 09:51 45.778638 -110.221574 246 6944ft 117kts
29-Aug-20 09:52 45.765566 -110.259276 246 6955ft 100kts
29-Aug-20 09:53 45.753279 -110.294561 246 6792ft 97kts
29-Aug-20 09:54 45.741156 -110.329365 246 6304ft 98kts
29-Aug-20 09:55 45.729585 -110.365387 250 5766ft 99kts
29-Aug-20 09:56 45.715106 -110.399477 251 5235ft 101kts
29-Aug-20 09:57 45.703717 -110.433779 241 4711ft 84kts
29-Aug-20 09:58 45.696418 -110.448934 235 4657ft 25kts
29-Aug-20 10:00 45.696989 -110.453371 14 4653ft 0kts
29-Aug-20 10:01 45.696989 -110.453371 14 4653ft 0kts
29-Aug-20 10:02 45.696989 -110.453371 14 4653ft 0kts
29-Aug-20 10:03 45.696989 -110.453371 14 4653ft 0kts
29-Aug-20 10:04 45.696989 -110.453371 14 4653ft 0kts
29-Aug-20 10:05 45.696989 -110.453371 14 4653ft 0kts
29-Aug-20 10:06 45.696989 -110.453371 14 4653ft 0kts
29-Aug-20 10:07 45.696989 -110.453371 14 4653ft 0kts
29-Aug-20 10:08 45.696989 -110.453371 14 4653ft 0kts
29-Aug-20 10:09 45.696989 -110.453371 14 4653ft 0kts
29-Aug-20 10:10 45.696989 -110.453371 14 4653ft 0kts
29-Aug-20 10:11 45.696989 -110.453371 14 4653ft 0kts
29-Aug-20 10:12 45.696989 -110.453371 14 4653ft 0kts

Navigation Log

Ident Type
Flight plan parsing failed, navigation log unavailable